TimeEAT,TemperatureF,Dew PointF,Humidity,Sea Level PressureIn,VisibilityMPH,Wind Direction,Wind SpeedMPH,Gust SpeedMPH,PrecipitationIn,Events,Conditions,WindDirDegrees,DateUTC
12:00 AM,53.6,51.8,94,30.24,-9999.0,East,8.1,-,N/A,,Clear,80,2012-10-06 21:00:00
2:00 AM,53.6,50.0,88,-9999,-9999.0,Calm,Calm,-,N/A,,Clear,0,2012-10-06 23:00:00
4:00 AM,53.6,50.0,88,-9999,-9999.0,Calm,Calm,-,N/A,,Clear,0,2012-10-07 01:00:00
5:00 AM,51.8,50.0,94,-9999,-9999.0,Calm,Calm,-,N/A,,Clear,0,2012-10-07 02:00:00
6:00 AM,50.0,48.2,94,30.21,-9999.0,NNE,5.8,-,N/A,,Clear,20,2012-10-07 03:00:00
7:00 AM,55.4,51.8,88,-9999,-9999.0,Calm,Calm,-,N/A,,Clear,0,2012-10-07 04:00:00
8:00 AM,62.6,51.8,68,-9999,-9999.0,ESE,5.8,-,N/A,,Clear,120,2012-10-07 05:00:00
9:00 AM,68.0,51.8,56,30.27,6.2,East,15.0,-,N/A,,Mostly Cloudy,90,2012-10-07 06:00:00
10:00 AM,71.6,50.0,46,30.27,6.2,East,15.0,-,N/A,,Mostly Cloudy,80,2012-10-07 07:00:00
11:00 AM,73.4,50.0,44,30.27,6.2,East,18.4,-,N/A,,Scattered Clouds,80,2012-10-07 08:00:00
12:00 PM,75.2,50.0,41,30.24,6.2,NE,11.5,-,N/A,,Partly Cloudy,50,2012-10-07 09:00:00
1:00 PM,75.2,51.8,44,30.21,6.2,NE,12.7,-,N/A,,Scattered Clouds,50,2012-10-07 10:00:00
2:00 PM,75.2,50.0,41,30.18,6.2,ENE,13.8,-,N/A,,Scattered Clouds,60,2012-10-07 11:00:00
3:00 PM,77.0,48.2,36,30.18,6.2,ENE,12.7,-,N/A,,Scattered Clouds,60,2012-10-07 12:00:00
4:00 PM,77.0,46.4,34,30.15,6.2,ENE,15.0,-,N/A,,Scattered Clouds,70,2012-10-07 13:00:00
5:00 PM,73.4,51.8,47,30.15,6.2,NNE,17.3,-,N/A,,Scattered Clouds,30,2012-10-07 14:00:00
6:00 PM,68.0,51.8,56,30.18,6.2,ENE,8.1,-,N/A,,Mostly Cloudy,70,2012-10-07 15:00:00
7:00 PM,62.6,51.8,68,30.18,6.2,East,3.5,-,N/A,,Mostly Cloudy,100,2012-10-07 16:00:00
8:00 PM,60.8,51.8,72,30.21,6.2,SSE,3.5,-,N/A,,Mostly Cloudy,160,2012-10-07 17:00:00
9:00 PM,60.8,53.6,77,30.24,6.2,East,5.8,-,N/A,,Mostly Cloudy,100,2012-10-07 18:00:00
10:00 PM,60.8,53.6,77,30.24,6.2,SE,5.8,-,N/A,,Mostly Cloudy,140,2012-10-07 19:00:00
11:00 PM,57.2,53.6,88,30.24,6.2,East,4.6,-,N/A,,Mostly Cloudy,100,2012-10-07 20:00:00